.
WxDataArchive / Data Records for 2015-09-04
2015-09-03 September 2015 2015-09-05

Data Records for Friday, 04 September 2015

Time	Temp	Chill	HIndex	Humid	Dewpt	 Wind 	HiWind	WindDir	Rain 	Barom
-----	----	-----	------	-----	-----	------	------	-------	-----	-----
00:00	75.8	75.8	77.2	74	66.9	0	0	---	0.00	29.861 
00:05	76.0	76.0	77.4	74	67.1	0	0	---	0.00	29.861 
00:10	76.0	76.0	77.4	74	67.1	0	0	---	0.00	29.861 
00:15	76.0	76.0	77.4	74	67.1	0	0	---	0.00	29.857 
00:20	76.0	76.0	77.4	74	67.1	0	0	---	0.00	29.857 
00:25	76.0	76.0	77.4	74	67.1	0	0	---	0.00	29.857 
00:30	76.0	76.0	77.5	73	66.7	0	0	---	0.00	29.861 
00:35	76.0	76.0	77.5	73	66.7	0	0	---	0.00	29.861 
00:40	76.0	76.0	77.5	73	66.7	0	0	---	0.00	29.861 
00:45	76.0	76.0	77.5	73	66.7	0	0	---	0.00	29.870 
00:50	76.0	76.0	77.5	73	66.7	0	0	---	0.00	29.870 
00:55	76.1	76.1	77.6	73	66.8	0	0	---	0.00	29.870 
01:00	76.1	76.1	77.6	73	66.8	0	0	---	0.00	29.871 
01:05	76.1	76.1	77.6	73	66.8	0	0	---	0.00	29.871 
01:10	76.1	76.1	77.6	73	66.8	0	0	---	0.00	29.871 
01:15	76.1	76.1	77.6	73	66.8	0	0	---	0.00	29.870 
01:20	76.1	76.1	77.6	73	66.8	0	0	---	0.00	29.870 
01:25	76.0	76.0	77.5	73	66.7	0	0	---	0.00	29.870 
01:30	76.0	76.0	77.5	73	66.7	0	1	270	0.00	29.868 
01:35	76.0	76.0	77.5	73	66.7	0	0	---	0.00	29.868 
01:40	76.0	76.0	77.4	74	67.1	0	0	---	0.00	29.868 
01:45	76.0	76.0	77.5	73	66.7	0	1	270	0.00	29.870 
01:50	76.0	76.0	77.5	73	66.7	0	0	---	0.00	29.870 
01:55	76.0	76.0	77.5	73	66.7	0	0	---	0.00	29.870 
02:00	76.0	76.0	77.5	73	66.7	0	0	---	0.00	29.872 
02:05	76.0	76.0	77.5	73	66.7	0	1	270	0.00	29.872 
02:10	75.8	75.8	77.3	73	66.5	0	0	---	0.00	29.872 
02:15	75.8	75.8	77.2	74	66.9	0	0	---	0.00	29.875 
02:20	75.6	75.6	77.0	74	66.7	0	0	---	0.00	29.875 
02:25	75.6	75.6	77.0	74	66.7	0	0	---	0.00	29.875 
02:30	75.4	75.4	76.7	74	66.5	0	0	---	0.00	29.877 
02:35	75.3	75.3	76.5	75	66.8	0	0	---	0.00	29.877 
02:40	75.1	75.1	76.3	75	66.6	0	0	---	0.00	29.877 
02:45	74.7	74.7	74.7	76	66.6	0	0	---	0.00	29.877 
02:50	74.6	74.6	74.6	77	66.9	0	0	---	0.00	29.877 
02:55	74.4	74.4	74.4	77	66.7	0	0	---	0.00	29.877 
03:00	74.0	74.0	74.0	78	66.7	0	0	---	0.00	29.877 
03:05	74.0	74.0	74.0	78	66.7	0	0	---	0.00	29.877 
03:10	73.9	73.9	73.9	78	66.6	0	0	---	0.00	29.877 
03:15	73.9	73.9	73.9	79	67.0	0	0	---	0.00	29.874 
03:20	73.7	73.7	73.7	79	66.8	0	0	---	0.00	29.874 
03:25	73.7	73.7	73.7	79	66.8	0	0	---	0.00	29.874 
03:30	73.5	73.5	73.5	79	66.6	0	0	---	0.00	29.876 
03:35	73.5	73.5	73.5	79	66.6	0	0	---	0.00	29.876 
03:40	73.3	73.3	73.3	80	66.7	0	0	---	0.00	29.876 
03:45	73.2	73.2	73.2	80	66.6	0	0	---	0.00	29.877 
03:50	73.2	73.2	73.2	80	66.6	0	0	---	0.00	29.877 
03:55	73.0	73.0	73.0	81	66.8	0	0	---	0.00	29.877 
04:00	73.0	73.0	73.0	81	66.8	0	0	---	0.00	29.880 
04:05	72.8	72.8	72.8	81	66.6	0	0	---	0.00	29.880 
04:10	72.8	72.8	72.8	81	66.6	0	0	---	0.00	29.880 
04:15	72.7	72.7	72.7	81	66.5	0	0	---	0.00	29.887 
04:20	72.7	72.7	72.7	81	66.5	0	0	---	0.00	29.887 
04:25	72.5	72.5	72.5	82	66.7	0	0	---	0.00	29.887 
04:30	72.3	72.3	72.3	82	66.5	0	0	---	0.00	29.889 
04:35	72.3	72.3	72.3	82	66.5	0	0	---	0.00	29.889 
04:40	72.1	72.1	72.1	83	66.6	0	0	---	0.00	29.889 
04:45	72.0	72.0	72.0	83	66.5	0	0	---	0.00	29.890 
04:50	71.8	71.8	71.8	83	66.3	0	0	---	0.00	29.890 
04:55	71.6	71.6	71.6	84	66.5	0	0	---	0.00	29.890 
05:00	71.5	71.5	71.5	84	66.4	0	0	---	0.00	29.893 
05:05	71.3	71.3	71.3	85	66.5	0	0	---	0.00	29.893 
05:10	71.1	71.1	71.1	85	66.4	0	0	---	0.00	29.893 
05:15	71.1	71.1	71.1	86	66.7	0	0	---	0.00	29.894 
05:20	70.9	70.9	70.9	86	66.5	0	0	---	0.00	29.894 
05:25	70.8	70.8	70.8	86	66.4	0	0	---	0.00	29.894 
05:30	70.8	70.8	70.8	86	66.4	0	0	---	0.00	29.899 
05:35	70.6	70.6	70.6	86	66.2	0	0	---	0.00	29.899 
05:40	70.4	70.4	70.4	87	66.3	0	0	---	0.00	29.899 
05:45	70.4	70.4	70.4	87	66.3	0	0	---	0.00	29.905 
05:50	70.3	70.3	70.3	87	66.2	0	0	---	0.00	29.905 
05:55	70.3	70.3	70.3	88	66.6	0	0	---	0.00	29.905 
06:00	70.3	70.3	70.3	88	66.6	0	0	---	0.00	29.908 
06:05	70.3	70.3	70.3	88	66.6	0	0	---	0.00	29.908 
06:10	70.3	70.3	70.3	88	66.6	0	0	---	0.00	29.908 
06:15	70.3	70.3	70.3	88	66.6	0	0	---	0.00	29.911 
06:20	70.3	70.3	70.3	88	66.6	0	0	---	0.00	29.911 
06:25	70.3	70.3	70.3	88	66.6	0	0	---	0.00	29.911 
06:30	70.3	70.3	70.3	88	66.6	0	0	---	0.00	29.915 
06:35	70.1	70.1	70.1	88	66.4	0	0	---	0.00	29.915 
06:40	70.1	70.1	70.1	88	66.4	0	0	---	0.00	29.915 
06:45	70.1	70.1	70.1	89	66.7	0	0	---	0.00	29.920 
06:50	69.9	69.9	69.9	89	66.5	0	0	---	0.00	29.920 
06:55	69.9	69.9	69.9	89	66.5	0	0	---	0.00	29.920 
07:00	69.9	69.9	69.9	89	66.5	0	0	---	0.00	29.924 
07:05	69.9	69.9	69.9	89	66.5	0	0	---	0.00	29.924 
07:10	69.9	69.9	69.9	90	66.8	0	0	---	0.00	29.924 
07:15	69.9	69.9	69.9	90	66.8	0	0	---	0.00	29.926 
07:20	69.9	69.9	69.9	90	66.8	0	0	---	0.00	29.926 
07:25	69.9	69.9	69.9	90	66.8	0	0	---	0.00	29.926 
07:30	69.9	69.9	69.9	90	66.8	0	0	---	0.00	29.927 
07:35	69.9	69.9	69.9	90	66.8	0	0	---	0.00	29.927 
07:40	70.1	70.1	70.1	90	67.0	0	0	---	0.00	29.927 
07:45	70.1	70.1	70.1	90	67.0	0	0	---	0.00	29.927 
07:50	70.1	70.1	70.1	90	67.0	0	0	---	0.00	29.927 
07:55	70.3	70.3	70.3	90	67.2	0	0	---	0.00	29.927 
08:00	70.4	70.4	70.4	90	67.3	0	0	---	0.00	29.940 
08:05	70.9	70.9	70.9	90	67.8	0	1	292	0.00	29.940 
08:10	71.3	71.3	71.3	89	67.9	0	1	292	0.00	29.940 
08:15	71.5	71.5	71.5	89	68.1	0	0	---	0.00	29.943 
08:20	71.8	71.8	71.8	89	68.4	0	0	---	0.00	29.943 
08:25	72.1	72.1	72.1	88	68.3	0	0	---	0.00	29.943 
08:30	72.5	72.5	72.5	88	68.7	0	2	292	0.00	29.953 
08:35	72.8	72.8	72.8	87	68.7	0	0	---	0.00	29.953 
08:40	73.0	73.0	73.0	87	68.9	0	1	292	0.00	29.953 
08:45	73.0	73.0	73.0	86	68.6	0	1	292	0.00	29.943 
08:50	73.2	73.2	73.2	86	68.7	0	0	---	0.00	29.943 
08:55	73.3	73.3	73.3	87	69.2	0	0	---	0.00	29.943 
09:00	73.5	73.5	73.5	86	69.0	0	1	292	0.00	29.940 
09:05	73.9	73.9	73.9	86	69.4	0	1	292	0.00	29.940 
09:10	74.0	74.0	74.0	86	69.5	0	0	---	0.00	29.940 
09:15	74.2	74.2	74.2	86	69.7	0	0	---	0.00	29.945 
09:20	74.7	74.7	74.7	85	69.9	0	1	292	0.00	29.945 
09:25	75.1	75.1	75.2	84	69.9	0	1	292	0.00	29.945 
09:30	75.4	75.4	75.8	83	69.9	0	1	292	0.00	29.943 
09:35	75.8	75.8	76.4	83	70.3	0	1	292	0.00	29.943 
09:40	76.1	76.1	77.0	82	70.2	0	0	---	0.00	29.943 
09:45	76.7	76.7	78.0	82	70.8	0	1	292	0.00	29.941 
09:50	77.0	77.0	78.5	81	70.7	0	1	292	0.00	29.941 
09:55	77.6	77.6	79.6	81	71.3	0	1	292	0.00	29.941 
10:00	77.9	77.9	80.1	80	71.2	0	1	292	0.00	29.941 
10:05	78.3	78.3	80.7	77	70.5	0	2	292	0.00	29.941 
10:10	78.6	78.6	81.3	78	71.1	0	1	292	0.00	29.941 
10:15	79.4	79.4	82.6	76	71.2	0	1	292	0.00	29.945 
10:20	79.6	79.6	82.8	75	71.0	0	2	292	0.00	29.945 
10:25	79.6	79.6	82.7	74	70.6	0	2	292	0.00	29.945 
10:30	79.6	79.6	82.6	73	70.2	1	2	292	0.00	29.953 
10:35	79.8	79.8	83.1	74	70.8	0	2	292	0.00	29.953 
10:40	79.9	79.9	83.1	73	70.4	1	2	292	0.00	29.953 
10:45	79.8	79.8	83.1	74	70.8	1	3	292	0.00	29.956 
10:50	79.6	79.6	82.7	74	70.6	0	2	292	0.00	29.956 
10:55	79.4	79.4	82.4	74	70.4	0	1	292	0.00	29.956 
11:00	79.8	79.8	83.2	75	71.1	0	1	292	0.00	29.956 
11:05	80.3	80.3	84.0	74	71.2	1	2	292	0.00	29.956 
11:10	80.9	80.9	85.0	73	71.4	1	2	292	0.00	29.956 
11:15	81.2	81.2	85.2	71	70.9	1	3	292	0.00	29.958 
11:20	81.6	81.6	85.9	71	71.3	1	3	292	0.00	29.958 
11:25	81.8	81.8	86.1	70	71.0	1	3	292	0.00	29.958 
11:30	81.6	81.6	85.7	70	70.8	1	4	292	0.00	29.956 
11:35	81.6	81.6	85.9	71	71.3	1	3	292	0.00	29.956 
11:40	82.0	82.0	86.4	70	71.2	1	2	292	0.00	29.956 
11:45	82.4	82.4	87.2	70	71.6	1	3	292	0.00	29.953 
11:50	83.0	83.0	88.4	70	72.2	1	2	292	0.00	29.953 
11:55	83.6	83.6	89.0	68	71.9	1	2	292	0.00	29.953 
12:00	84.0	84.0	89.5	67	71.8	1	3	292	0.00	29.947 
12:05	84.0	84.0	89.5	67	71.8	1	3	292	0.00	29.947 
12:10	83.4	83.4	88.6	68	71.7	2	3	292	0.00	29.947 
12:15	82.4	82.4	87.0	69	71.2	1	9	292	0.00	29.968 
12:20	79.2	79.2	81.5	67	67.3	1	5	315	0.07	29.968 
12:25	76.3	76.3	77.8	74	67.4	0	1	292	0.02	29.968 
12:30	74.9	74.9	74.9	78	67.6	0	1	292	0.00	29.978 
12:35	73.5	73.5	73.5	81	67.3	0	0	---	0.00	29.978 
12:40	72.8	72.8	72.8	84	67.7	0	1	292	0.00	29.978 
12:45	72.3	72.3	72.3	85	67.5	0	0	---	0.00	29.963 
12:50	72.0	72.0	72.0	87	67.9	0	0	---	0.00	29.963 
12:55	71.8	71.8	71.8	88	68.0	0	0	---	0.00	29.963 
13:00	72.0	72.0	72.0	89	68.6	0	1	292	0.01	29.977 
13:05	72.1	72.1	72.1	90	69.0	0	1	292	0.00	29.977 
13:10	72.1	72.1	72.1	90	69.0	0	0	---	0.00	29.977 
13:15	72.1	72.1	72.1	91	69.3	0	0	---	0.00	29.964 
13:20	72.3	72.3	72.3	91	69.5	0	0	---	0.00	29.964 
13:25	72.3	72.3	72.3	92	69.8	0	0	---	0.00	29.964 
13:30	72.3	72.3	72.3	92	69.8	0	0	---	0.00	29.977 
13:35	72.1	72.1	72.1	92	69.6	0	0	---	0.00	29.977 
13:40	72.0	72.0	72.0	92	69.5	0	1	292	0.00	29.977 
13:45	71.6	71.6	71.6	91	68.8	0	1	292	0.00	29.974 
13:50	71.3	71.3	71.3	91	68.5	0	0	---	0.00	29.974 
13:55	71.3	71.3	71.3	91	68.5	0	1	292	0.00	29.974 
14:00	71.1	71.1	71.1	91	68.3	0	0	---	0.00	29.979 
14:05	71.1	71.1	71.1	91	68.3	0	0	---	0.00	29.979 
14:10	71.1	71.1	71.1	91	68.3	0	0	---	0.00	29.979 
14:15	71.3	71.3	71.3	91	68.5	0	0	---	0.00	29.983 
14:20	71.3	71.3	71.3	91	68.5	0	1	270	0.00	29.983 
14:25	71.3	71.3	71.3	91	68.5	0	0	---	0.00	29.983 
14:30	71.3	71.3	71.3	91	68.5	0	0	---	0.00	29.980 
14:35	71.1	71.1	71.1	90	68.0	0	0	---	0.00	29.980 
14:40	71.1	71.1	71.1	90	68.0	0	0	---	0.00	29.980 
14:45	71.3	71.3	71.3	91	68.5	0	0	---	0.00	29.964 
14:50	71.5	71.5	71.5	91	68.7	0	0	---	0.00	29.964 
14:55	71.6	71.6	71.6	91	68.8	0	0	---	0.00	29.964 
15:00	71.8	71.8	71.8	90	68.7	0	1	270	0.00	29.965 
15:05	72.0	72.0	72.0	90	68.9	0	1	270	0.00	29.965 
15:10	72.1	72.1	72.1	89	68.7	0	1	112	0.00	29.965 
15:15	72.3	72.3	72.3	90	69.2	0	0	---	0.00	29.958 
15:20	72.3	72.3	72.3	89	68.9	0	1	112	0.00	29.958 
15:25	72.3	72.3	72.3	89	68.9	0	1	112	0.00	29.958 
15:30	72.3	72.3	72.3	89	68.9	0	1	112	0.00	29.966 
15:35	72.3	72.3	72.3	89	68.9	0	2	112	0.00	29.966 
15:40	72.7	72.7	72.7	89	69.3	0	1	112	0.00	29.966 
15:45	72.8	72.8	72.8	88	69.0	0	1	112	0.00	29.963 
15:50	73.0	73.0	73.0	88	69.2	1	3	112	0.00	29.963 
15:55	73.2	73.2	73.2	87	69.1	1	3	112	0.00	29.963 
16:00	73.5	73.5	73.5	87	69.4	0	2	112	0.00	29.948 
16:05	73.9	73.9	73.9	86	69.4	1	3	112	0.00	29.948 
16:10	74.2	74.2	74.2	86	69.7	0	4	112	0.00	29.948 
16:15	74.7	74.7	74.7	85	69.9	0	2	112	0.00	29.946 
16:20	74.9	74.9	74.9	84	69.7	0	0	---	0.00	29.946 
16:25	75.1	75.1	75.3	83	69.6	0	0	---	0.00	29.946 
16:30	75.1	75.1	75.3	83	69.6	0	0	---	0.00	29.957 
16:35	75.1	75.1	75.5	82	69.2	0	1	112	0.00	29.957 
16:40	74.9	74.9	74.9	81	68.7	0	0	---	0.00	29.957 
16:45	74.7	74.7	74.7	82	68.8	0	1	112	0.00	29.948 
16:50	74.6	74.6	74.6	83	69.1	0	1	112	0.00	29.948 
16:55	74.6	74.6	74.6	84	69.4	0	0	---	0.00	29.948 
17:00	74.6	74.6	74.6	84	69.4	0	1	112	0.00	29.967 
17:05	74.4	74.4	74.4	84	69.2	0	3	112	0.00	29.967 
17:10	74.2	74.2	74.2	84	69.0	1	5	112	0.00	29.967 
17:15	73.9	73.9	73.9	83	68.4	3	6	270	0.00	29.996 
17:20	73.0	73.0	73.0	82	67.2	1	4	270	0.00	29.996 
17:25	72.3	72.3	72.3	82	66.5	0	2	270	0.00	29.996 
17:30	71.1	71.1	71.1	81	65.0	0	3	270	0.01	30.027 
17:35	69.9	69.9	69.9	83	64.5	0	5	270	0.00	30.027 
17:40	69.1	69.1	69.1	84	64.1	0	3	292	0.00	30.027 
17:45	68.6	68.6	68.6	86	64.2	0	1	292	0.01	30.011 
17:50	68.3	68.3	68.3	87	64.3	0	0	---	0.00	30.011 
17:55	68.3	68.3	68.3	88	64.6	0	1	292	0.00	30.011 
18:00	68.1	68.1	68.1	88	64.4	0	1	292	0.00	30.022 
18:05	68.1	68.1	68.1	89	64.7	0	0	---	0.00	30.022 
18:10	67.9	67.9	67.9	89	64.5	0	1	292	0.00	30.022 
18:15	67.9	67.9	67.9	89	64.5	0	0	---	0.00	30.011 
18:20	67.9	67.9	67.9	89	64.5	0	0	---	0.00	30.011 
18:25	67.9	67.9	67.9	90	64.9	0	1	292	0.00	30.011 
18:30	67.9	67.9	67.9	90	64.9	0	1	292	0.00	30.001 
18:35	67.8	67.8	67.8	90	64.8	0	0	---	0.00	30.001 
18:40	67.8	67.8	67.8	90	64.8	0	1	292	0.00	30.001 
18:45	67.9	67.9	67.9	90	64.9	0	1	292	0.00	29.989 
18:50	67.8	67.8	67.8	90	64.8	0	1	292	0.00	29.989 
18:55	67.8	67.8	67.8	91	65.1	0	1	292	0.00	29.989 
19:00	67.8	67.8	67.8	91	65.1	1	3	292	0.01	29.980 
19:05	67.6	67.6	67.6	91	64.9	0	1	292	0.00	29.980 
19:10	67.3	67.3	67.3	91	64.6	0	0	---	0.00	29.980 
19:15	67.1	67.1	67.1	91	64.4	0	0	---	0.00	29.964 
19:20	67.1	67.1	67.1	91	64.4	0	1	292	0.01	29.964 
19:25	67.1	67.1	67.1	91	64.4	1	4	292	0.00	29.964 
19:30	67.1	67.1	67.1	91	64.4	0	1	292	0.00	29.974 
19:35	67.1	67.1	67.1	91	64.4	0	1	292	0.00	29.974 
19:40	67.1	67.1	67.1	92	64.7	0	3	292	0.00	29.974 
19:45	67.3	67.3	67.3	92	64.9	0	1	292	0.00	29.987 
19:50	67.4	67.4	67.4	92	65.0	0	1	292	0.00	29.987 
19:55	67.6	67.6	67.6	92	65.2	0	1	292	0.00	29.987 
20:00	67.6	67.6	67.6	92	65.2	0	0	---	0.00	29.999 
20:05	67.4	67.4	67.4	92	65.0	0	0	---	0.00	29.999 
20:10	67.4	67.4	67.4	92	65.0	0	1	292	0.00	29.999 
20:15	67.4	67.4	67.4	92	65.0	0	1	292	0.00	29.989 
20:20	67.4	67.4	67.4	93	65.3	0	0	---	0.00	29.989 
20:25	67.4	67.4	67.4	93	65.3	0	2	292	0.00	29.989 
20:30	67.4	67.4	67.4	93	65.3	0	3	292	0.00	30.000 
20:35	67.4	67.4	67.4	93	65.3	0	1	292	0.00	30.000 
20:40	67.3	67.3	67.3	93	65.2	0	2	292	0.00	30.000 
20:45	67.3	67.3	67.3	93	65.2	0	1	292	0.00	30.005 
20:50	67.1	67.1	67.1	93	65.0	0	1	292	0.00	30.005 
20:55	67.1	67.1	67.1	93	65.0	0	0	---	0.00	30.005 
21:00	67.1	67.1	67.1	93	65.0	0	0	---	0.00	30.007 
21:05	67.1	67.1	67.1	93	65.0	0	0	---	0.00	30.007 
21:10	67.1	67.1	67.1	93	65.0	0	0	---	0.00	30.007 
21:15	67.1	67.1	67.1	93	65.0	0	0	---	0.00	30.008 
21:20	66.9	66.9	66.9	93	64.8	0	0	---	0.00	30.008 
21:25	66.9	66.9	66.9	93	64.8	0	0	---	0.00	30.008 
21:30	66.9	66.9	66.9	94	65.1	0	0	---	0.00	30.013 
21:35	66.9	66.9	66.9	94	65.1	0	1	292	0.00	30.013 
21:40	66.9	66.9	66.9	94	65.1	0	0	---	0.00	30.013 
21:45	66.9	66.9	66.9	94	65.1	0	0	---	0.00	30.014 
21:50	66.9	66.9	66.9	94	65.1	0	0	---	0.00	30.014 
21:55	66.9	66.9	66.9	94	65.1	0	0	---	0.00	30.014 
22:00	66.8	66.8	66.8	94	65.0	0	0	---	0.00	30.017 
22:05	66.8	66.8	66.8	94	65.0	0	0	---	0.00	30.017 
22:10	66.8	66.8	66.8	94	65.0	0	0	---	0.00	30.017 
22:15	66.8	66.8	66.8	94	65.0	0	0	---	0.00	30.014 
22:20	66.6	66.6	66.6	94	64.8	0	1	292	0.00	30.014 
22:25	66.6	66.6	66.6	94	64.8	0	0	---	0.00	30.014 
22:30	66.6	66.6	66.6	94	64.8	0	0	---	0.00	30.022 
22:35	66.6	66.6	66.6	94	64.8	0	0	---	0.00	30.022 
22:40	66.6	66.6	66.6	94	64.8	0	0	---	0.00	30.022 
22:45	66.4	66.4	66.4	94	64.6	0	0	---	0.00	30.024 
22:50	66.4	66.4	66.4	94	64.6	0	0	---	0.00	30.024 
22:55	66.4	66.4	66.4	94	64.6	0	0	---	0.00	30.024 
23:00	66.4	66.4	66.4	94	64.6	0	0	---	0.00	30.028 
23:05	66.4	66.4	66.4	95	64.9	0	0	---	0.00	30.028 
23:10	66.4	66.4	66.4	94	64.6	0	0	---	0.00	30.028 
23:15	66.4	66.4	66.4	95	64.9	0	1	292	0.00	30.027 
23:20	66.3	66.3	66.3	95	64.8	0	0	---	0.00	30.027 
23:25	66.4	66.4	66.4	95	64.9	0	0	---	0.00	30.027 
23:30	66.4	66.4	66.4	95	64.9	0	0	---	0.00	30.029 
23:35	66.3	66.3	66.3	95	64.8	0	0	---	0.00	30.029 
23:40	66.3	66.3	66.3	95	64.8	0	0	---	0.00	30.029 
23:45	66.3	66.3	66.3	95	64.8	0	0	---	0.00	30.028 
23:50	66.3	66.3	66.3	95	64.8	0	0	---	0.00	30.028 
23:55	66.3	66.3	66.3	95	64.8	0	0	---	0.00	30.028 

CoCoRaHS
IN-AL-39
A2 Web Hosting
Creative Commons License
GoDaddy
search engine by freefind advanced

loaded 2018-11-17 23:16:37 • last modified 2010-11-18 10:43:29
Privacy PolicyDisclaimer
• wx.awcolley.com is powered by PmWiki v.2002016 •
• all content (unless otherwise noted) © 2018 A W Colley